sensor_id;sensor_type;location;lat;lon;timestamp;temperature;humidity
1992;DHT22;997;48.448;8.924;2023-03-24T04:07:52;14.30;99.90
1992;DHT22;997;48.448;8.924;2023-03-24T04:10:20;14.20;99.90
1992;DHT22;997;48.448;8.924;2023-03-24T05:33:02;13.60;99.90
1992;DHT22;997;48.448;8.924;2023-03-24T05:51:00;13.10;99.90
1992;DHT22;997;48.448;8.924;2023-03-24T05:53:26;13.20;99.90
1992;DHT22;997;48.448;8.924;2023-03-24T05:55:51;13.20;99.90
1992;DHT22;997;48.448;8.924;2023-03-24T05:58:18;13.30;99.90
1992;DHT22;997;48.448;8.924;2023-03-24T06:01:15;13.20;99.90
1992;DHT22;997;48.448;8.924;2023-03-24T06:03:42;13.20;99.90
1992;DHT22;997;48.448;8.924;2023-03-24T06:16:22;12.90;99.90
1992;DHT22;997;48.448;8.924;2023-03-24T06:31:46;12.90;99.90
1992;DHT22;997;48.448;8.924;2023-03-24T09:04:57;12.50;99.90
1992;DHT22;997;48.448;8.924;2023-03-24T09:07:24;12.60;99.90
1992;DHT22;997;48.448;8.924;2023-03-24T09:09:49;12.60;99.90
1992;DHT22;997;48.448;8.924;2023-03-24T09:12:16;12.80;99.90
1992;DHT22;997;48.448;8.924;2023-03-24T09:14:46;12.90;99.90
1992;DHT22;997;48.448;8.924;2023-03-24T09:17:11;13.00;99.90
1992;DHT22;997;48.448;8.924;2023-03-24T09:19:37;13.10;99.90
1992;DHT22;997;48.448;8.924;2023-03-24T09:22:03;13.20;99.90
1992;DHT22;997;48.448;8.924;2023-03-24T09:24:29;13.30;99.90
1992;DHT22;997;48.448;8.924;2023-03-24T09:26:54;13.40;99.90
1992;DHT22;997;48.448;8.924;2023-03-24T09:29:20;13.50;99.90
1992;DHT22;997;48.448;8.924;2023-03-24T09:31:46;13.50;99.90
1992;DHT22;997;48.448;8.924;2023-03-24T09:34:12;13.40;99.90
1992;DHT22;997;48.448;8.924;2023-03-24T09:36:37;13.50;99.90
1992;DHT22;997;48.448;8.924;2023-03-24T09:39:03;13.70;99.90
1992;DHT22;997;48.448;8.924;2023-03-24T09:41:30;13.90;99.90
1992;DHT22;997;48.448;8.924;2023-03-24T09:46:38;14.00;99.90
1992;DHT22;997;48.448;8.924;2023-03-24T09:49:12;14.10;99.90
1992;DHT22;997;48.448;8.924;2023-03-24T09:51:43;14.20;99.90
1992;DHT22;997;48.448;8.924;2023-03-24T09:56:56;14.20;99.90
1992;DHT22;997;48.448;8.924;2023-03-24T09:59:37;14.20;99.90
1992;DHT22;997;48.448;8.924;2023-03-24T10:02:11;14.20;99.90
1992;DHT22;997;48.448;8.924;2023-03-24T10:04:38;14.30;99.90
1992;DHT22;997;48.448;8.924;2023-03-24T10:13:34;14.50;99.90
1992;DHT22;997;48.448;8.924;2023-03-24T10:16:13;14.60;99.90
1992;DHT22;997;48.448;8.924;2023-03-24T10:21:26;14.80;99.90
1992;DHT22;997;48.448;8.924;2023-03-24T10:24:10;14.90;99.90
1992;DHT22;997;48.448;8.924;2023-03-24T10:26:51;15.00;99.90
1992;DHT22;997;48.448;8.924;2023-03-24T10:29:34;15.00;99.90
1992;DHT22;997;48.448;8.924;2023-03-24T10:32:21;15.00;99.90
1992;DHT22;997;48.448;8.924;2023-03-24T10:34:57;15.10;99.90
1992;DHT22;997;48.448;8.924;2023-03-24T10:37:26;15.20;99.90
1992;DHT22;997;48.448;8.924;2023-03-24T10:39:53;15.10;99.90
1992;DHT22;997;48.448;8.924;2023-03-24T10:42:24;15.10;99.90
1992;DHT22;997;48.448;8.924;2023-03-24T10:44:50;15.10;99.90
1992;DHT22;997;48.448;8.924;2023-03-24T10:47:27;14.90;99.90
1992;DHT22;997;48.448;8.924;2023-03-24T10:50:00;14.90;99.90
1992;DHT22;997;48.448;8.924;2023-03-24T10:52:27;14.80;99.90
1992;DHT22;997;48.448;8.924;2023-03-24T10:55:01;14.80;99.90
1992;DHT22;997;48.448;8.924;2023-03-24T10:57:28;14.80;99.90
1992;DHT22;997;48.448;8.924;2023-03-24T11:00:06;14.80;99.90
1992;DHT22;997;48.448;8.924;2023-03-24T11:02:55;14.80;99.90
1992;DHT22;997;48.448;8.924;2023-03-24T11:05:26;14.80;99.90
1992;DHT22;997;48.448;8.924;2023-03-24T11:07:58;14.80;99.90
1992;DHT22;997;48.448;8.924;2023-03-24T11:10:34;14.80;99.90
1992;DHT22;997;48.448;8.924;2023-03-24T11:13:01;14.90;99.90
1992;DHT22;997;48.448;8.924;2023-03-24T11:15:31;14.90;99.90
1992;DHT22;997;48.448;8.924;2023-03-24T11:20:32;15.00;99.90
1992;DHT22;997;48.448;8.924;2023-03-24T11:25:34;15.10;99.90
1992;DHT22;997;48.448;8.924;2023-03-24T11:28:38;15.20;99.90
1992;DHT22;997;48.448;8.924;2023-03-24T11:31:07;15.30;99.90
1992;DHT22;997;48.448;8.924;2023-03-24T11:33:40;15.30;99.90
1992;DHT22;997;48.448;8.924;2023-03-24T11:39:12;15.30;99.90
1992;DHT22;997;48.448;8.924;2023-03-24T11:41:42;15.40;99.90
1992;DHT22;997;48.448;8.924;2023-03-24T11:44:17;15.40;99.90
1992;DHT22;997;48.448;8.924;2023-03-24T11:46:45;15.50;99.90
1992;DHT22;997;48.448;8.924;2023-03-24T11:49:15;15.30;99.90
1992;DHT22;997;48.448;8.924;2023-03-24T11:51:44;15.20;99.90
1992;DHT22;997;48.448;8.924;2023-03-24T11:54:13;15.20;99.90
1992;DHT22;997;48.448;8.924;2023-03-24T11:56:45;15.10;99.90
1992;DHT22;997;48.448;8.924;2023-03-24T12:05:57;15.30;99.90
1992;DHT22;997;48.448;8.924;2023-03-24T12:13:41;15.00;99.90
1992;DHT22;997;48.448;8.924;2023-03-24T12:22:05;15.00;99.90
1992;DHT22;997;48.448;8.924;2023-03-24T12:27:41;15.10;99.90
1992;DHT22;997;48.448;8.924;2023-03-24T12:33:44;15.10;99.90
1992;DHT22;997;48.448;8.924;2023-03-24T12:36:45;15.10;99.90
1992;DHT22;997;48.448;8.924;2023-03-24T12:39:29;15.10;99.90
1992;DHT22;997;48.448;8.924;2023-03-24T12:42:10;15.20;99.90
1992;DHT22;997;48.448;8.924;2023-03-24T12:45:17;15.50;99.90
1992;DHT22;997;48.448;8.924;2023-03-24T12:56:10;15.50;99.90
1992;DHT22;997;48.448;8.924;2023-03-24T12:58:49;15.50;99.90
1992;DHT22;997;48.448;8.924;2023-03-24T13:01:40;15.50;99.90
1992;DHT22;997;48.448;8.924;2023-03-24T13:04:25;15.40;99.90
1992;DHT22;997;48.448;8.924;2023-03-24T13:07:17;15.30;99.90
1992;DHT22;997;48.448;8.924;2023-03-24T13:15:15;14.90;99.90
1992;DHT22;997;48.448;8.924;2023-03-24T13:20:44;14.70;99.90
1992;DHT22;997;48.448;8.924;2023-03-24T13:31:58;14.60;99.90
1992;DHT22;997;48.448;8.924;2023-03-24T13:34:28;14.40;99.90
1992;DHT22;997;48.448;8.924;2023-03-24T13:37:05;14.50;99.90
1992;DHT22;997;48.448;8.924;2023-03-24T13:39:35;14.50;99.90
1992;DHT22;997;48.448;8.924;2023-03-24T13:42:02;14.40;99.90
1992;DHT22;997;48.448;8.924;2023-03-24T13:44:42;14.40;99.90
1992;DHT22;997;48.448;8.924;2023-03-24T13:47:18;14.40;99.90
1992;DHT22;997;48.448;8.924;2023-03-24T13:50:04;14.30;99.90
1992;DHT22;997;48.448;8.924;2023-03-24T13:52:37;14.20;99.90
1992;DHT22;997;48.448;8.924;2023-03-24T13:55:11;14.30;99.90
1992;DHT22;997;48.448;8.924;2023-03-24T13:57:41;14.30;99.90
1992;DHT22;997;48.448;8.924;2023-03-24T14:00:22;14.40;99.90
1992;DHT22;997;48.448;8.924;2023-03-24T14:02:53;14.30;99.90
1992;DHT22;997;48.448;8.924;2023-03-24T14:10:40;14.00;99.90
1992;DHT22;997;48.448;8.924;2023-03-24T14:23:44;14.00;99.90
1992;DHT22;997;48.448;8.924;2023-03-24T14:26:27;13.90;99.90
1992;DHT22;997;48.448;8.924;2023-03-24T14:28:55;13.90;99.90
1992;DHT22;997;48.448;8.924;2023-03-24T14:31:32;13.80;99.90
1992;DHT22;997;48.448;8.924;2023-03-24T14:34:12;13.90;99.90
1992;DHT22;997;48.448;8.924;2023-03-24T14:36:43;13.80;99.90
1992;DHT22;997;48.448;8.924;2023-03-24T14:39:23;13.80;99.90
1992;DHT22;997;48.448;8.924;2023-03-24T14:41:52;13.90;99.90
1992;DHT22;997;48.448;8.924;2023-03-24T14:47:15;13.70;99.90
1992;DHT22;997;48.448;8.924;2023-03-24T14:49:47;13.60;99.90
1992;DHT22;997;48.448;8.924;2023-03-24T14:55:09;13.70;99.90
1992;DHT22;997;48.448;8.924;2023-03-24T14:57:42;13.60;99.90
1992;DHT22;997;48.448;8.924;2023-03-24T15:02:52;13.60;99.90
1992;DHT22;997;48.448;8.924;2023-03-24T15:08:16;13.60;99.90
1992;DHT22;997;48.448;8.924;2023-03-24T15:15:59;13.40;99.90
1992;DHT22;997;48.448;8.924;2023-03-24T15:18:25;13.40;99.90
1992;DHT22;997;48.448;8.924;2023-03-24T15:20:52;13.40;99.90
1992;DHT22;997;48.448;8.924;2023-03-24T15:23:23;13.30;99.90
1992;DHT22;997;48.448;8.924;2023-03-24T15:25:50;13.20;99.90
1992;DHT22;997;48.448;8.924;2023-03-24T15:28:27;13.10;99.90
1992;DHT22;997;48.448;8.924;2023-03-24T15:30:54;13.10;99.90
1992;DHT22;997;48.448;8.924;2023-03-24T15:33:21;13.00;99.90
1992;DHT22;997;48.448;8.924;2023-03-24T15:35:58;13.00;99.90
1992;DHT22;997;48.448;8.924;2023-03-24T15:38:29;12.90;99.90
1992;DHT22;997;48.448;8.924;2023-03-24T15:41:08;12.90;99.90
1992;DHT22;997;48.448;8.924;2023-03-24T15:43:44;13.00;99.90
1992;DHT22;997;48.448;8.924;2023-03-24T15:46:26;12.90;99.90
1992;DHT22;997;48.448;8.924;2023-03-24T15:48:54;12.90;99.90
1992;DHT22;997;48.448;8.924;2023-03-24T15:51:47;12.90;99.90
1992;DHT22;997;48.448;8.924;2023-03-24T15:54:40;13.00;99.90
1992;DHT22;997;48.448;8.924;2023-03-24T15:57:22;13.00;99.90
1992;DHT22;997;48.448;8.924;2023-03-24T16:02:35;13.30;99.90
1992;DHT22;997;48.448;8.924;2023-03-24T16:05:17;13.50;99.90
1992;DHT22;997;48.448;8.924;2023-03-24T16:07:44;13.40;99.90
1992;DHT22;997;48.448;8.924;2023-03-24T16:10:33;13.40;99.90
1992;DHT22;997;48.448;8.924;2023-03-24T16:13:18;13.40;99.90
1992;DHT22;997;48.448;8.924;2023-03-24T16:15:46;13.40;99.90
1992;DHT22;997;48.448;8.924;2023-03-24T16:18:33;13.40;99.90
1992;DHT22;997;48.448;8.924;2023-03-24T16:21:02;13.40;99.90
1992;DHT22;997;48.448;8.924;2023-03-24T16:23:31;13.40;99.90
1992;DHT22;997;48.448;8.924;2023-03-24T16:25:58;13.30;99.90
1992;DHT22;997;48.448;8.924;2023-03-24T16:28:23;13.20;99.90
1992;DHT22;997;48.448;8.924;2023-03-24T16:30:55;13.20;99.90
1992;DHT22;997;48.448;8.924;2023-03-24T16:33:22;13.20;99.90
1992;DHT22;997;48.448;8.924;2023-03-24T16:35:48;13.00;99.90
1992;DHT22;997;48.448;8.924;2023-03-24T16:38:14;13.10;99.90
1992;DHT22;997;48.448;8.924;2023-03-24T16:40:50;13.00;99.90
1992;DHT22;997;48.448;8.924;2023-03-24T16:43:16;12.90;99.90
1992;DHT22;997;48.448;8.924;2023-03-24T16:45:47;12.80;99.90
1992;DHT22;997;48.448;8.924;2023-03-24T16:48:13;12.80;99.90
1992;DHT22;997;48.448;8.924;2023-03-24T16:50:45;12.80;99.90
1992;DHT22;997;48.448;8.924;2023-03-24T16:53:11;12.80;99.90
1992;DHT22;997;48.448;8.924;2023-03-24T16:55:38;12.90;99.90
1992;DHT22;997;48.448;8.924;2023-03-24T16:58:06;12.90;99.90
1992;DHT22;997;48.448;8.924;2023-03-24T17:00:32;12.90;99.90
1992;DHT22;997;48.448;8.924;2023-03-24T17:03:02;12.80;99.90
1992;DHT22;997;48.448;8.924;2023-03-24T17:05:33;12.80;99.90
1992;DHT22;997;48.448;8.924;2023-03-24T17:08:01;12.80;99.90
1992;DHT22;997;48.448;8.924;2023-03-24T17:10:27;12.80;99.90
1992;DHT22;997;48.448;8.924;2023-03-24T17:12:56;12.80;99.90
1992;DHT22;997;48.448;8.924;2023-03-24T17:15:27;12.80;99.90
1992;DHT22;997;48.448;8.924;2023-03-24T17:17:54;12.80;99.90
1992;DHT22;997;48.448;8.924;2023-03-24T17:20:21;12.80;99.90
1992;DHT22;997;48.448;8.924;2023-03-24T17:22:48;12.70;99.90
1992;DHT22;997;48.448;8.924;2023-03-24T17:25:19;12.60;99.90
1992;DHT22;997;48.448;8.924;2023-03-24T17:27:48;12.60;99.90
1992;DHT22;997;48.448;8.924;2023-03-24T17:30:17;12.60;99.90
1992;DHT22;997;48.448;8.924;2023-03-24T17:32:43;12.60;99.90
1992;DHT22;997;48.448;8.924;2023-03-24T17:35:14;12.70;99.90
1992;DHT22;997;48.448;8.924;2023-03-24T17:37:41;12.60;99.90
1992;DHT22;997;48.448;8.924;2023-03-24T17:40:09;12.50;99.90
1992;DHT22;997;48.448;8.924;2023-03-24T17:42:37;12.50;99.90
1992;DHT22;997;48.448;8.924;2023-03-24T17:45:05;12.50;99.90
1992;DHT22;997;48.448;8.924;2023-03-24T17:47:32;12.40;99.90
1992;DHT22;997;48.448;8.924;2023-03-24T17:49:58;12.40;99.90
1992;DHT22;997;48.448;8.924;2023-03-24T17:52:24;12.40;99.90
1992;DHT22;997;48.448;8.924;2023-03-24T17:54:50;12.40;99.90
1992;DHT22;997;48.448;8.924;2023-03-24T17:57:16;12.40;99.90
1992;DHT22;997;48.448;8.924;2023-03-24T17:59:42;12.30;99.90
1992;DHT22;997;48.448;8.924;2023-03-24T18:02:11;12.30;99.90
1992;DHT22;997;48.448;8.924;2023-03-24T18:04:37;12.20;99.90
1992;DHT22;997;48.448;8.924;2023-03-24T18:07:03;12.20;99.90
1992;DHT22;997;48.448;8.924;2023-03-24T18:09:31;12.00;99.90
1992;DHT22;997;48.448;8.924;2023-03-24T18:11:57;12.10;99.90
1992;DHT22;997;48.448;8.924;2023-03-24T18:14:23;12.00;99.90
1992;DHT22;997;48.448;8.924;2023-03-24T18:16:48;11.90;99.90
1992;DHT22;997;48.448;8.924;2023-03-24T18:19:14;11.90;99.90
1992;DHT22;997;48.448;8.924;2023-03-24T18:21:40;11.90;99.90
1992;DHT22;997;48.448;8.924;2023-03-24T18:24:06;11.80;99.90
1992;DHT22;997;48.448;8.924;2023-03-24T18:26:32;11.80;99.90
1992;DHT22;997;48.448;8.924;2023-03-24T18:28:58;11.80;99.90
1992;DHT22;997;48.448;8.924;2023-03-24T18:31:24;11.80;99.90
1992;DHT22;997;48.448;8.924;2023-03-24T18:33:54;11.80;99.90
1992;DHT22;997;48.448;8.924;2023-03-24T18:36:20;11.70;99.90
1992;DHT22;997;48.448;8.924;2023-03-24T18:38:54;11.70;99.90
1992;DHT22;997;48.448;8.924;2023-03-24T18:41:21;11.60;99.90
1992;DHT22;997;48.448;8.924;2023-03-24T18:43:51;11.60;99.90
1992;DHT22;997;48.448;8.924;2023-03-24T18:46:17;11.60;99.90
1992;DHT22;997;48.448;8.924;2023-03-24T18:48:43;11.50;99.90
1992;DHT22;997;48.448;8.924;2023-03-24T18:51:09;11.50;99.90
1992;DHT22;997;48.448;8.924;2023-03-24T18:53:36;11.50;99.90
1992;DHT22;997;48.448;8.924;2023-03-24T18:56:03;11.40;99.90
1992;DHT22;997;48.448;8.924;2023-03-24T18:58:29;11.30;99.90
1992;DHT22;997;48.448;8.924;2023-03-24T19:00:57;11.20;99.90
1992;DHT22;997;48.448;8.924;2023-03-24T19:03:24;11.20;99.90
1992;DHT22;997;48.448;8.924;2023-03-24T19:05:50;11.20;99.90
1992;DHT22;997;48.448;8.924;2023-03-24T19:08:20;11.30;99.90
1992;DHT22;997;48.448;8.924;2023-03-24T19:10:46;11.30;99.90
1992;DHT22;997;48.448;8.924;2023-03-24T19:13:13;11.40;99.90
1992;DHT22;997;48.448;8.924;2023-03-24T19:15:39;11.40;99.90
1992;DHT22;997;48.448;8.924;2023-03-24T19:18:05;11.40;99.90
1992;DHT22;997;48.448;8.924;2023-03-24T19:20:32;11.40;99.90
1992;DHT22;997;48.448;8.924;2023-03-24T19:22:59;11.30;99.90
1992;DHT22;997;48.448;8.924;2023-03-24T19:25:25;11.30;99.90
1992;DHT22;997;48.448;8.924;2023-03-24T19:27:51;11.30;99.90
1992;DHT22;997;48.448;8.924;2023-03-24T19:30:17;11.40;99.90
1992;DHT22;997;48.448;8.924;2023-03-24T19:32:43;11.30;99.90
1992;DHT22;997;48.448;8.924;2023-03-24T19:35:11;11.30;99.90
1992;DHT22;997;48.448;8.924;2023-03-24T19:37:37;11.20;99.90
1992;DHT22;997;48.448;8.924;2023-03-24T19:40:03;11.20;99.90
1992;DHT22;997;48.448;8.924;2023-03-24T19:42:34;11.10;99.90
1992;DHT22;997;48.448;8.924;2023-03-24T19:45:03;11.10;99.90
1992;DHT22;997;48.448;8.924;2023-03-24T19:47:29;11.10;99.90
1992;DHT22;997;48.448;8.924;2023-03-24T19:49:55;11.00;99.90
1992;DHT22;997;48.448;8.924;2023-03-24T19:52:21;11.10;99.90
1992;DHT22;997;48.448;8.924;2023-03-24T19:54:46;11.00;99.90
1992;DHT22;997;48.448;8.924;2023-03-24T19:57:12;11.00;99.90
1992;DHT22;997;48.448;8.924;2023-03-24T19:59:38;10.90;99.90
1992;DHT22;997;48.448;8.924;2023-03-24T20:02:03;10.80;99.90
1992;DHT22;997;48.448;8.924;2023-03-24T20:04:29;10.80;99.90
1992;DHT22;997;48.448;8.924;2023-03-24T20:06:55;10.80;99.90
1992;DHT22;997;48.448;8.924;2023-03-24T20:09:22;10.70;99.90
1992;DHT22;997;48.448;8.924;2023-03-24T20:11:50;10.60;99.90
1992;DHT22;997;48.448;8.924;2023-03-24T20:14:17;10.60;99.90
1992;DHT22;997;48.448;8.924;2023-03-24T20:16:44;10.60;99.90
1992;DHT22;997;48.448;8.924;2023-03-24T20:19:10;10.50;99.90
1992;DHT22;997;48.448;8.924;2023-03-24T20:21:35;10.40;99.90
1992;DHT22;997;48.448;8.924;2023-03-24T20:24:01;10.40;99.90
1992;DHT22;997;48.448;8.924;2023-03-24T20:26:28;10.30;99.90
1992;DHT22;997;48.448;8.924;2023-03-24T20:28:54;10.30;99.90
1992;DHT22;997;48.448;8.924;2023-03-24T20:31:21;10.20;99.90
1992;DHT22;997;48.448;8.924;2023-03-24T20:33:49;10.10;99.90
1992;DHT22;997;48.448;8.924;2023-03-24T20:36:15;10.10;99.90
1992;DHT22;997;48.448;8.924;2023-03-24T20:38:40;10.00;99.90
1992;DHT22;997;48.448;8.924;2023-03-24T20:41:07;10.00;99.90
1992;DHT22;997;48.448;8.924;2023-03-24T20:43:34;9.90;99.90
1992;DHT22;997;48.448;8.924;2023-03-24T20:46:02;9.80;99.90
1992;DHT22;997;48.448;8.924;2023-03-24T20:48:28;9.80;99.90
1992;DHT22;997;48.448;8.924;2023-03-24T20:50:54;9.70;99.90
1992;DHT22;997;48.448;8.924;2023-03-24T20:53:20;9.80;99.90
1992;DHT22;997;48.448;8.924;2023-03-24T20:56:09;9.70;99.90
1992;DHT22;997;48.448;8.924;2023-03-24T20:58:37;9.70;99.90
1992;DHT22;997;48.448;8.924;2023-03-24T21:01:19;9.60;99.90
1992;DHT22;997;48.448;8.924;2023-03-24T21:03:47;9.60;99.90
1992;DHT22;997;48.448;8.924;2023-03-24T21:06:14;9.60;99.90
1992;DHT22;997;48.448;8.924;2023-03-24T21:08:40;9.60;99.90
1992;DHT22;997;48.448;8.924;2023-03-24T21:11:06;9.60;99.90
1992;DHT22;997;48.448;8.924;2023-03-24T21:13:33;9.60;99.90
1992;DHT22;997;48.448;8.924;2023-03-24T21:15:59;9.60;99.90
1992;DHT22;997;48.448;8.924;2023-03-24T21:18:25;9.50;99.90
1992;DHT22;997;48.448;8.924;2023-03-24T21:20:53;9.50;99.90
1992;DHT22;997;48.448;8.924;2023-03-24T21:23:22;9.50;99.90
1992;DHT22;997;48.448;8.924;2023-03-24T21:25:49;9.50;99.90
1992;DHT22;997;48.448;8.924;2023-03-24T21:28:15;9.60;99.90
1992;DHT22;997;48.448;8.924;2023-03-24T21:30:44;9.60;99.90
1992;DHT22;997;48.448;8.924;2023-03-24T21:33:11;9.50;99.90
1992;DHT22;997;48.448;8.924;2023-03-24T21:35:37;9.50;99.90
1992;DHT22;997;48.448;8.924;2023-03-24T21:38:03;9.50;99.90
1992;DHT22;997;48.448;8.924;2023-03-24T21:40:34;9.50;99.90
1992;DHT22;997;48.448;8.924;2023-03-24T21:43:00;9.50;99.90
1992;DHT22;997;48.448;8.924;2023-03-24T21:45:29;9.50;99.90
1992;DHT22;997;48.448;8.924;2023-03-24T21:47:57;9.40;99.90
1992;DHT22;997;48.448;8.924;2023-03-24T21:50:24;9.40;99.90
1992;DHT22;997;48.448;8.924;2023-03-24T21:52:53;9.40;99.90
1992;DHT22;997;48.448;8.924;2023-03-24T21:55:21;9.30;99.90
1992;DHT22;997;48.448;8.924;2023-03-24T21:57:48;9.30;99.90
1992;DHT22;997;48.448;8.924;2023-03-24T22:00:17;9.20;99.90
1992;DHT22;997;48.448;8.924;2023-03-24T22:02:45;9.20;99.90
1992;DHT22;997;48.448;8.924;2023-03-24T22:05:20;9.20;99.90
1992;DHT22;997;48.448;8.924;2023-03-24T22:07:47;9.20;99.90
1992;DHT22;997;48.448;8.924;2023-03-24T22:10:16;9.10;99.90
1992;DHT22;997;48.448;8.924;2023-03-24T22:12:48;9.10;99.90
1992;DHT22;997;48.448;8.924;2023-03-24T22:15:13;9.10;99.90
1992;DHT22;997;48.448;8.924;2023-03-24T22:17:39;9.10;99.90
1992;DHT22;997;48.448;8.924;2023-03-24T22:20:06;9.00;99.90
1992;DHT22;997;48.448;8.924;2023-03-24T22:22:34;9.00;99.90
1992;DHT22;997;48.448;8.924;2023-03-24T22:25:00;8.90;99.90
1992;DHT22;997;48.448;8.924;2023-03-24T22:27:26;8.90;99.90
1992;DHT22;997;48.448;8.924;2023-03-24T22:29:52;8.80;99.90
